Startpagina
METAR-TAF:

METAR-TAF

Vliegvelden :

Luchthaven Palanga

Palanga, Litouwen

breedte: 55-55-12N, lengte: 021-03E, hoogte: 10 m

Actueel weer

Dit bericht is 10 minuten geleden gemaakt, om 12:29 UTC
Wind 11 kt uit het zuidoosten, variërend tussen het oosten en het zuidzuidoosten
Temperatuur 2°C
Vochtigheid 69%
Druk 1023 hPa
Zicht 10 km of meer
Weinig wolken op 2300 ft
Gebroken wolken op 8200 ft

METAR: EYPA 221229Z 14011KT 100V160 9999 FEW023 BKN082 02/M03 Q1023 R19/0///95

Tijdstip: 14:39 (12:39 UTC)

Verwachting

Dit bericht is 1 uur en het 37 minuten geleden gemaakt, om 11:02 UTC
Verwachting geldig van 22 om 12 UTC tot 23 om 12 UTC
Wind 14 kt uit het zuidoosten met uitschieters tot 24 kt
Zicht: 9000 m
Gebroken wolken op 2500 ft
Wijzigt naar
van 23 om 00 UTC tot 23 om 01 UTC

TAF: EYPA 221102Z 2212/2312 14014G24KT 9000 BKN025 BECMG 2300/2301 NSC

Waarnemingen en weersverwachtingen van meer dan 4000 vliegvelden (METAR en TAF).

De beschikbare stations zijn de gele en rode punten op de kaart.

Ga met uw muis naar het station om de naam te zien.

Klik dan om waarnemingen en weersverwachtingen te zien.

kaart wijzigen: klik op de groene knoppen met een zwart kruis om in te zoomen, op de groene knop met een streepje om uit te zoomen of op de groene pijlen voor aangrenzende kaarten.


METAR-TAF: